createdAt,value
2022-10-02T00:00:11.657Z,13.89
2022-10-02T00:01:11.675Z,13.88
2022-10-02T00:02:11.928Z,13.88
2022-10-02T00:03:11.960Z,13.89
2022-10-02T00:04:11.656Z,13.91
2022-10-02T00:05:11.611Z,13.91
2022-10-02T00:06:11.600Z,13.94
2022-10-02T00:07:11.579Z,13.92
2022-10-02T00:08:11.582Z,13.92
2022-10-02T00:09:11.624Z,13.92
2022-10-02T00:10:11.551Z,13.92
2022-10-02T00:11:11.542Z,13.91
2022-10-02T00:12:11.524Z,13.91
2022-10-02T00:13:11.500Z,13.89
2022-10-02T00:14:11.568Z,13.92
2022-10-02T00:15:11.851Z,13.89
2022-10-02T00:16:11.519Z,13.92
2022-10-02T00:17:11.460Z,13.91
2022-10-02T00:18:11.454Z,13.92
2022-10-02T00:19:11.431Z,13.92
2022-10-02T00:20:11.423Z,13.91
2022-10-02T00:21:11.432Z,13.92
2022-10-02T00:22:11.393Z,13.92
2022-10-02T00:23:11.382Z,13.92
2022-10-02T00:24:11.385Z,13.94
2022-10-02T00:25:11.363Z,13.94
2022-10-02T00:26:11.686Z,13.94
2022-10-02T00:27:11.347Z,13.92
2022-10-02T00:28:14.363Z,13.92
2022-10-02T00:29:11.337Z,13.94
2022-10-02T00:30:11.363Z,13.91
2022-10-02T00:31:11.320Z,13.91
2022-10-02T00:32:11.614Z,13.91
2022-10-02T00:33:11.289Z,13.92
2022-10-02T00:34:15.145Z,13.91
2022-10-02T00:35:11.236Z,13.89
2022-10-02T00:36:11.247Z,13.92
2022-10-02T00:37:11.215Z,13.92
2022-10-02T00:38:11.530Z,13.91
2022-10-02T00:39:11.210Z,13.89
2022-10-02T00:40:11.177Z,13.91
2022-10-02T00:41:11.176Z,13.92
2022-10-02T00:42:11.177Z,13.91
2022-10-02T00:43:11.412Z,13.89
2022-10-02T00:44:11.137Z,13.91
2022-10-02T00:45:11.131Z,13.89
2022-10-02T00:46:11.213Z,13.89
2022-10-02T00:47:11.111Z,13.89
2022-10-02T00:48:11.088Z,13.89
2022-10-02T00:49:11.096Z,13.88
2022-10-02T00:50:11.061Z,13.88
2022-10-02T00:51:11.093Z,13.91
2022-10-02T00:52:11.060Z,13.91
2022-10-02T00:53:11.034Z,13.94
2022-10-02T00:54:11.039Z,13.95
2022-10-02T00:55:11.014Z,13.96
2022-10-02T00:56:10.989Z,13.98
2022-10-02T00:57:10.986Z,13.96
2022-10-02T00:58:10.973Z,13.96
2022-10-02T00:59:11.254Z,13.99
2022-10-02T01:00:10.942Z,13.96
2022-10-02T01:01:10.968Z,13.98
2022-10-02T01:02:10.994Z,13.99
2022-10-02T01:03:10.916Z,14.02
2022-10-02T01:04:10.893Z,13.99
2022-10-02T01:05:11.147Z,14.02
2022-10-02T01:06:10.877Z,14.02
2022-10-02T01:07:10.878Z,14.02
2022-10-02T01:08:10.857Z,14.04
2022-10-02T01:09:10.835Z,14.04
2022-10-02T01:10:10.840Z,14.04
2022-10-02T01:11:11.136Z,14.06
2022-10-02T01:12:10.819Z,14.06
2022-10-02T01:13:10.796Z,14.04
2022-10-02T01:14:10.785Z,14.06
2022-10-02T01:15:10.755Z,14.07
2022-10-02T01:16:10.779Z,14.10
2022-10-02T01:17:11.044Z,14.10
2022-10-02T01:18:10.748Z,14.12
2022-10-02T01:19:10.721Z,14.13
2022-10-02T01:20:10.970Z,14.12
2022-10-02T01:21:10.689Z,14.13
2022-10-02T01:22:10.668Z,14.10
2022-10-02T01:23:10.669Z,14.14
2022-10-02T01:24:10.661Z,14.14
2022-10-02T01:25:10.651Z,14.14
2022-10-02T01:26:10.631Z,14.16
2022-10-02T01:27:10.880Z,14.16
2022-10-02T01:28:10.650Z,14.19
2022-10-02T01:29:10.591Z,14.20
2022-10-02T01:30:10.603Z,14.21
2022-10-02T01:31:10.716Z,14.24
2022-10-02T01:32:10.551Z,14.24
2022-10-02T01:33:10.868Z,14.27
2022-10-02T01:34:10.544Z,14.28
2022-10-02T01:35:10.520Z,14.29
2022-10-02T01:36:10.825Z,14.32
2022-10-02T01:37:10.491Z,14.32
2022-10-02T01:38:10.483Z,14.32
2022-10-02T01:39:10.474Z,14.35
2022-10-02T01:40:10.471Z,14.35
2022-10-02T01:41:10.442Z,14.37
2022-10-02T01:42:10.766Z,14.38
2022-10-02T01:43:10.432Z,14.39
2022-10-02T01:44:10.426Z,14.39
2022-10-02T01:45:10.393Z,14.38
2022-10-02T01:46:10.435Z,14.39
2022-10-02T01:47:10.391Z,14.39
2022-10-02T01:48:10.377Z,14.39
2022-10-02T01:49:10.366Z,14.43
2022-10-02T01:50:10.346Z,14.42
2022-10-02T01:51:10.584Z,14.43
2022-10-02T01:52:10.329Z,14.43
2022-10-02T01:53:10.317Z,14.42
2022-10-02T01:54:10.308Z,14.42
2022-10-02T01:55:10.292Z,14.42
2022-10-02T01:56:10.281Z,14.42
2022-10-02T01:57:10.487Z,14.39
2022-10-02T01:58:10.246Z,14.43
2022-10-02T01:59:10.250Z,14.43
2022-10-02T02:00:10.218Z,14.47
2022-10-02T02:01:10.273Z,14.47
2022-10-02T02:02:10.251Z,14.49
2022-10-02T02:03:10.438Z,14.49
2022-10-02T02:04:10.191Z,14.49
2022-10-02T02:05:10.172Z,14.47
2022-10-02T02:06:10.164Z,14.49
2022-10-02T02:07:10.153Z,14.49
2022-10-02T02:08:10.129Z,14.49
2022-10-02T02:09:10.454Z,14.49
2022-10-02T02:10:10.124Z,14.50
2022-10-02T02:11:10.108Z,14.50
2022-10-02T02:12:10.382Z,14.50
2022-10-02T02:13:10.061Z,14.50
2022-10-02T02:14:10.060Z,14.52
2022-10-02T02:15:10.054Z,14.52
2022-10-02T02:16:10.187Z,14.52
2022-10-02T02:17:10.085Z,14.50
2022-10-02T02:18:10.032Z,14.50
2022-10-02T02:19:10.039Z,14.50
2022-10-02T02:20:10.006Z,14.50
2022-10-02T02:21:09.986Z,14.50
2022-10-02T02:22:10.267Z,14.52
2022-10-02T02:23:09.967Z,14.52
2022-10-02T02:24:09.969Z,14.53
2022-10-02T02:25:09.938Z,14.53
2022-10-02T02:26:09.930Z,14.53
2022-10-02T02:27:09.918Z,14.53
2022-10-02T02:28:10.151Z,14.53
2022-10-02T02:29:09.883Z,14.54
2022-10-02T02:30:09.888Z,14.53
2022-10-02T02:31:09.953Z,14.56
2022-10-02T02:32:09.897Z,14.56
2022-10-02T02:33:10.152Z,14.53
2022-10-02T02:34:10.150Z,14.56
2022-10-02T02:35:09.806Z,14.56
2022-10-02T02:36:09.807Z,14.57
2022-10-02T02:37:09.804Z,14.57
2022-10-02T02:38:09.800Z,14.61
2022-10-02T02:39:09.781Z,14.57
2022-10-02T02:40:10.051Z,14.61
2022-10-02T02:41:09.748Z,14.62
2022-10-02T02:42:09.742Z,14.62
2022-10-02T02:43:09.719Z,14.62
2022-10-02T02:44:09.709Z,14.62
2022-10-02T02:45:09.689Z,14.64
2022-10-02T02:46:10.081Z,14.64
2022-10-02T02:47:09.684Z,14.64
2022-10-02T02:48:09.683Z,14.67
2022-10-02T02:49:09.950Z,14.65
2022-10-02T02:50:09.631Z,14.65
2022-10-02T02:51:09.635Z,14.67
2022-10-02T02:52:09.612Z,14.67
2022-10-02T02:53:09.602Z,14.68
2022-10-02T02:54:09.901Z,14.68
2022-10-02T02:55:09.573Z,14.68
2022-10-02T02:56:09.563Z,14.65
2022-10-02T02:57:09.552Z,14.65
2022-10-02T02:58:09.885Z,14.67
2022-10-02T02:59:09.546Z,14.65
2022-10-02T03:00:09.514Z,14.67
2022-10-02T03:01:09.572Z,14.67
2022-10-02T03:02:09.567Z,14.68
2022-10-02T03:03:09.484Z,14.67
2022-10-02T03:04:09.808Z,14.67
2022-10-02T03:05:09.468Z,14.65
2022-10-02T03:06:09.757Z,14.65
2022-10-02T03:07:09.448Z,14.65
2022-10-02T03:08:09.426Z,14.67
2022-10-02T03:09:09.416Z,14.65
2022-10-02T03:10:09.648Z,14.65
2022-10-02T03:11:09.400Z,14.65
2022-10-02T03:12:09.377Z,14.64
2022-10-02T03:13:09.368Z,14.64
2022-10-02T03:14:09.372Z,14.62
2022-10-02T03:15:09.621Z,14.61
2022-10-02T03:16:09.454Z,14.61
2022-10-02T03:17:09.317Z,14.60
2022-10-02T03:18:09.572Z,14.60
2022-10-02T03:19:09.315Z,14.57
2022-10-02T03:20:09.279Z,14.57
2022-10-02T03:21:09.285Z,14.57
2022-10-02T03:22:09.273Z,14.57
2022-10-02T03:23:10.053Z,14.60
2022-10-02T03:24:09.550Z,14.60
2022-10-02T03:25:09.223Z,14.60
2022-10-02T03:26:09.211Z,14.60
2022-10-02T03:27:09.201Z,14.57
2022-10-02T03:28:09.267Z,14.57
2022-10-02T03:29:09.242Z,14.56
2022-10-02T03:30:09.445Z,14.56
2022-10-02T03:31:09.173Z,14.56
2022-10-02T03:32:09.142Z,14.56
2022-10-02T03:33:09.394Z,14.54
2022-10-02T03:34:09.137Z,14.56
2022-10-02T03:35:09.118Z,14.56
2022-10-02T03:36:09.115Z,14.54
2022-10-02T03:37:09.099Z,14.54
2022-10-02T03:38:09.383Z,14.57
2022-10-02T03:39:25.970Z,14.57
2022-10-02T03:40:10.054Z,14.60
2022-10-02T03:41:09.049Z,14.61
2022-10-02T03:42:09.027Z,14.60
2022-10-02T03:43:09.005Z,14.61
2022-10-02T03:44:09.249Z,14.61
2022-10-02T03:45:09.310Z,14.61
2022-10-02T03:46:09.020Z,14.62
2022-10-02T03:47:08.956Z,14.64
2022-10-02T03:48:08.958Z,14.65
2022-10-02T03:49:08.953Z,14.65
2022-10-02T03:50:09.254Z,14.65
2022-10-02T03:51:08.930Z,14.67
2022-10-02T03:52:08.920Z,14.67
2022-10-02T03:53:08.888Z,14.68
2022-10-02T03:54:08.889Z,14.68
2022-10-02T03:55:08.883Z,14.69
2022-10-02T03:56:08.892Z,14.71
2022-10-02T03:57:09.154Z,14.71
2022-10-02T03:58:08.840Z,14.69
2022-10-02T03:59:08.839Z,14.69
2022-10-02T04:00:08.836Z,14.72
2022-10-02T04:01:08.800Z,14.72
2022-10-02T04:02:08.816Z,14.75
2022-10-02T04:03:09.165Z,14.75
2022-10-02T04:04:08.765Z,14.78
2022-10-02T04:05:08.752Z,14.80
2022-10-02T04:06:08.743Z,14.81
2022-10-02T04:07:08.722Z,14.81
2022-10-02T04:08:08.733Z,14.83
2022-10-02T04:09:09.036Z,14.83
2022-10-02T04:10:08.709Z,14.86
2022-10-02T04:11:08.683Z,14.84
2022-10-02T04:12:08.990Z,14.84
2022-10-02T04:13:08.654Z,14.84
2022-10-02T04:14:08.652Z,14.83
2022-10-02T04:15:08.634Z,14.81
2022-10-02T04:16:08.661Z,14.81
2022-10-02T04:17:08.647Z,14.81
2022-10-02T04:18:08.867Z,14.81
2022-10-02T04:19:08.601Z,14.81
2022-10-02T04:20:08.576Z,14.81
2022-10-02T04:21:08.563Z,14.81
2022-10-02T04:22:08.570Z,14.78
2022-10-02T04:23:08.536Z,14.81
2022-10-02T04:24:08.547Z,14.81
2022-10-02T04:25:08.529Z,14.80
2022-10-02T04:26:08.520Z,14.80
2022-10-02T04:27:08.497Z,14.80
2022-10-02T04:28:08.551Z,14.80
2022-10-02T04:29:08.482Z,14.80
2022-10-02T04:30:08.698Z,14.83
2022-10-02T04:31:08.474Z,14.83
2022-10-02T04:32:08.458Z,14.83
2022-10-02T04:33:08.444Z,14.83
2022-10-02T04:34:08.445Z,14.84
2022-10-02T04:35:08.400Z,14.86
2022-10-02T04:36:08.708Z,14.84
2022-10-02T04:37:08.380Z,14.84
2022-10-02T04:38:08.378Z,14.86
2022-10-02T04:39:08.363Z,14.84
2022-10-02T04:40:08.363Z,14.83
2022-10-02T04:41:08.372Z,14.84
2022-10-02T04:42:08.347Z,14.83
2022-10-02T04:43:08.325Z,14.84
2022-10-02T04:44:08.306Z,14.83
2022-10-02T04:45:08.601Z,14.83
2022-10-02T04:46:08.338Z,14.84
2022-10-02T04:47:08.277Z,14.83
2022-10-02T04:48:08.254Z,14.83
2022-10-02T04:49:08.553Z,14.83
2022-10-02T04:50:08.447Z,14.81
2022-10-02T04:51:08.229Z,14.81
2022-10-02T04:52:08.415Z,14.80
2022-10-02T04:53:08.208Z,14.80
2022-10-02T04:54:08.197Z,14.78
2022-10-02T04:55:08.168Z,14.78
2022-10-02T04:56:08.177Z,14.75
2022-10-02T04:57:08.146Z,14.75
2022-10-02T04:58:08.378Z,14.75
2022-10-02T04:59:08.125Z,14.74
2022-10-02T05:00:08.118Z,14.71
2022-10-02T05:01:08.159Z,14.71
2022-10-02T05:02:08.178Z,14.72
2022-10-02T05:03:08.312Z,14.69
2022-10-02T05:04:08.087Z,14.69
2022-10-02T05:05:08.094Z,14.67
2022-10-02T05:06:08.402Z,14.65
2022-10-02T05:07:08.060Z,14.65
2022-10-02T05:08:08.019Z,14.65
2022-10-02T05:09:08.026Z,14.65
2022-10-02T05:10:08.004Z,14.65
2022-10-02T05:11:08.263Z,14.64
2022-10-02T05:12:07.986Z,14.65
2022-10-02T05:13:07.961Z,14.64
2022-10-02T05:14:07.953Z,14.64
2022-10-02T05:15:07.971Z,14.61
2022-10-02T05:16:07.979Z,14.64
2022-10-02T05:17:07.911Z,14.64
2022-10-02T05:18:07.933Z,14.62
2022-10-02T05:19:07.903Z,14.64
2022-10-02T05:20:08.146Z,14.62
2022-10-02T05:21:07.886Z,14.64
2022-10-02T05:22:07.856Z,14.62
2022-10-02T05:23:08.454Z,14.62
2022-10-02T05:24:07.854Z,14.60
2022-10-02T05:25:08.136Z,14.60
2022-10-02T05:26:11.954Z,14.60
2022-10-02T05:27:08.816Z,14.56
2022-10-02T05:28:07.821Z,14.57
2022-10-02T05:29:07.774Z,14.56
2022-10-02T05:30:07.755Z,14.56
2022-10-02T05:31:08.002Z,14.54
2022-10-02T05:32:07.751Z,14.54
2022-10-02T05:33:07.735Z,14.53
2022-10-02T05:34:07.729Z,14.53
2022-10-02T05:35:07.720Z,14.52
2022-10-02T05:36:07.960Z,14.50
2022-10-02T05:37:07.678Z,14.52
2022-10-02T05:38:07.680Z,14.52
2022-10-02T05:39:07.656Z,14.50
2022-10-02T05:40:07.645Z,14.50
2022-10-02T05:41:07.651Z,14.52
2022-10-02T05:42:07.949Z,14.52
2022-10-02T05:43:07.623Z,14.50
2022-10-02T05:44:07.611Z,14.50
2022-10-02T05:45:07.601Z,14.47
2022-10-02T05:46:07.591Z,14.47
2022-10-02T05:47:07.931Z,14.47
2022-10-02T05:48:07.570Z,14.47
2022-10-02T05:49:07.539Z,14.46
2022-10-02T05:50:07.542Z,14.46
2022-10-02T05:51:07.532Z,14.46
2022-10-02T05:52:07.501Z,14.46
2022-10-02T05:53:07.723Z,14.46
2022-10-02T05:54:07.513Z,14.44
2022-10-02T05:55:08.420Z,14.46
2022-10-02T05:56:07.460Z,14.47
2022-10-02T05:57:07.451Z,14.47
2022-10-02T05:58:07.712Z,14.47
2022-10-02T05:59:07.422Z,14.46
2022-10-02T06:00:07.425Z,14.46
2022-10-02T06:01:07.458Z,14.46
2022-10-02T06:02:07.420Z,14.46
2022-10-02T06:03:07.435Z,14.46
2022-10-02T06:04:07.690Z,14.47
2022-10-02T06:05:07.354Z,14.44
2022-10-02T06:06:07.357Z,14.44
2022-10-02T06:07:07.332Z,14.44
2022-10-02T06:08:07.637Z,14.44
2022-10-02T06:09:07.328Z,14.46
2022-10-02T06:10:07.327Z,14.49
2022-10-02T06:11:07.288Z,14.47
2022-10-02T06:12:07.265Z,14.46
2022-10-02T06:13:07.265Z,14.46
2022-10-02T06:14:07.246Z,14.46
2022-10-02T06:15:07.547Z,14.47
2022-10-02T06:16:07.306Z,14.46
2022-10-02T06:17:07.230Z,14.46
2022-10-02T06:18:07.210Z,14.44
2022-10-02T06:19:07.265Z,14.46
2022-10-02T06:20:07.198Z,14.46
2022-10-02T06:21:07.182Z,14.44
2022-10-02T06:22:07.155Z,14.44
2022-10-02T06:23:07.138Z,14.44
2022-10-02T06:24:07.132Z,14.44
2022-10-02T06:25:07.134Z,14.43
2022-10-02T06:26:07.389Z,14.43
2022-10-02T06:27:07.113Z,14.43
2022-10-02T06:28:07.142Z,14.43
2022-10-02T06:29:07.094Z,14.46
2022-10-02T06:30:07.061Z,14.44
2022-10-02T06:31:07.102Z,14.46
2022-10-02T06:32:07.364Z,14.46
2022-10-02T06:33:07.032Z,14.47
2022-10-02T06:34:07.013Z,14.47
2022-10-02T06:35:07.004Z,14.49
2022-10-02T06:36:07.006Z,14.52
2022-10-02T06:37:06.995Z,14.50
2022-10-02T06:38:07.274Z,14.52
2022-10-02T06:39:06.967Z,14.53
2022-10-02T06:40:06.957Z,14.53
2022-10-02T06:41:06.933Z,14.53
2022-10-02T06:42:06.933Z,14.52
2022-10-02T06:43:07.165Z,14.54
2022-10-02T06:44:06.906Z,14.56
2022-10-02T06:45:06.891Z,14.60
2022-10-02T06:46:06.965Z,14.60
2022-10-02T06:47:06.867Z,14.61
2022-10-02T06:48:07.155Z,14.62
2022-10-02T06:49:06.849Z,14.65
2022-10-02T06:50:06.859Z,14.65
2022-10-02T06:51:06.808Z,14.67
2022-10-02T06:52:06.796Z,14.67
2022-10-02T06:53:06.812Z,14.67
2022-10-02T06:54:07.078Z,14.68
2022-10-02T06:55:06.899Z,14.67
2022-10-02T06:56:06.761Z,14.65
2022-10-02T06:57:06.748Z,14.67
2022-10-02T06:58:06.740Z,14.67
2022-10-02T06:59:06.720Z,14.67
2022-10-02T07:00:06.739Z,14.68
2022-10-02T07:01:06.753Z,14.67
2022-10-02T07:02:06.702Z,14.68
2022-10-02T07:03:06.686Z,14.69
2022-10-02T07:04:06.912Z,14.69
2022-10-02T07:05:06.659Z,14.71
2022-10-02T07:06:06.634Z,14.71
2022-10-02T07:07:06.633Z,14.69
2022-10-02T07:08:06.622Z,14.71
2022-10-02T07:09:06.924Z,14.69
2022-10-02T07:10:06.584Z,14.74
2022-10-02T07:11:06.585Z,14.74
2022-10-02T07:12:06.560Z,14.74
2022-10-02T07:13:06.562Z,14.75
2022-10-02T07:14:06.550Z,14.75
2022-10-02T07:15:06.855Z,14.75
2022-10-02T07:16:06.732Z,14.78
2022-10-02T07:17:06.520Z,14.80
2022-10-02T07:18:06.516Z,14.83
2022-10-02T07:19:06.495Z,14.81
2022-10-02T07:20:06.487Z,14.84
2022-10-02T07:21:06.697Z,14.83
2022-10-02T07:22:25.846Z,14.83
2022-10-02T07:23:07.876Z,14.81
2022-10-02T07:24:06.448Z,14.83
2022-10-02T07:25:06.429Z,14.87
2022-10-02T07:26:06.712Z,14.87
2022-10-02T07:27:06.401Z,14.88
2022-10-02T07:28:06.431Z,14.90
2022-10-02T07:29:06.399Z,14.91
2022-10-02T07:30:06.348Z,14.91
2022-10-02T07:31:06.400Z,14.93
2022-10-02T07:32:06.342Z,14.94
2022-10-02T07:33:06.351Z,14.95
2022-10-02T07:34:06.595Z,15.01
2022-10-02T07:35:06.313Z,15.03
2022-10-02T07:36:06.292Z,15.05
2022-10-02T07:37:06.269Z,15.05
2022-10-02T07:38:06.459Z,15.05
2022-10-02T07:39:06.262Z,15.08
2022-10-02T07:40:06.245Z,15.06
2022-10-02T07:41:06.233Z,15.08
2022-10-02T07:42:06.243Z,15.11
2022-10-02T07:43:06.209Z,15.12
2022-10-02T07:44:06.182Z,15.13
2022-10-02T07:45:06.171Z,15.12
2022-10-02T07:46:09.210Z,15.13
2022-10-02T07:47:06.160Z,15.13
2022-10-02T07:48:06.354Z,15.17
2022-10-02T07:49:06.130Z,15.19
2022-10-02T07:50:06.136Z,15.19
2022-10-02T07:51:06.131Z,15.20
2022-10-02T07:52:06.097Z,15.21
2022-10-02T07:53:06.097Z,15.23
2022-10-02T07:54:06.309Z,15.21
2022-10-02T07:55:06.099Z,15.20
2022-10-02T07:56:06.080Z,15.21
2022-10-02T07:57:09.806Z,15.20
2022-10-02T07:58:06.057Z,15.23
2022-10-02T07:59:06.334Z,15.26
2022-10-02T08:00:06.016Z,15.26
2022-10-02T08:01:06.000Z,15.28
2022-10-02T08:02:06.053Z,15.30
2022-10-02T08:03:05.997Z,15.31
2022-10-02T08:04:05.968Z,15.33
2022-10-02T08:05:05.981Z,15.31
2022-10-02T08:06:05.963Z,15.30
2022-10-02T08:07:05.917Z,15.28
2022-10-02T08:08:05.919Z,15.27
2022-10-02T08:09:05.910Z,15.27
2022-10-02T08:10:05.878Z,15.24
2022-10-02T08:11:05.930Z,15.24
2022-10-02T08:12:06.171Z,15.24
2022-10-02T08:13:05.862Z,15.24
2022-10-02T08:14:05.850Z,15.21
2022-10-02T08:15:05.838Z,15.20
2022-10-02T08:16:05.842Z,15.17
2022-10-02T08:17:06.133Z,15.15
2022-10-02T08:18:29.998Z,15.19
2022-10-02T08:19:06.779Z,15.17
2022-10-02T08:20:05.780Z,15.17
2022-10-02T08:21:05.774Z,15.17
2022-10-02T08:22:05.754Z,15.17
2022-10-02T08:23:05.750Z,15.15
2022-10-02T08:24:05.719Z,15.15
2022-10-02T08:25:05.745Z,15.15
2022-10-02T08:26:05.717Z,15.19
2022-10-02T08:27:05.717Z,15.19
2022-10-02T08:28:05.724Z,15.21
2022-10-02T08:29:05.665Z,15.24
2022-10-02T08:30:05.663Z,15.24
2022-10-02T08:31:05.643Z,15.26
2022-10-02T08:32:05.892Z,15.24
2022-10-02T08:33:05.615Z,15.21
2022-10-02T08:34:05.604Z,15.19
2022-10-02T08:35:05.622Z,15.19
2022-10-02T08:36:05.608Z,15.20
2022-10-02T08:37:05.574Z,15.19
2022-10-02T08:38:05.567Z,15.19
2022-10-02T08:39:05.559Z,15.19
2022-10-02T08:40:05.541Z,15.17
2022-10-02T08:41:05.518Z,15.17
2022-10-02T08:42:05.506Z,15.19
2022-10-02T08:43:05.497Z,15.21
2022-10-02T08:44:05.701Z,15.21
2022-10-02T08:45:05.486Z,15.24
2022-10-02T08:46:05.542Z,15.24
2022-10-02T08:47:05.484Z,15.26
2022-10-02T08:48:05.451Z,15.31
2022-10-02T08:49:05.442Z,15.31
2022-10-02T08:50:05.447Z,15.33
2022-10-02T08:51:05.409Z,15.33
2022-10-02T08:52:05.397Z,15.39
2022-10-02T08:53:05.662Z,15.38
2022-10-02T08:54:05.382Z,15.41
2022-10-02T08:55:05.368Z,15.43
2022-10-02T08:56:05.357Z,15.48
2022-10-02T08:57:05.341Z,15.48
2022-10-02T08:58:05.322Z,15.51
2022-10-02T08:59:05.332Z,15.59
2022-10-02T09:00:05.315Z,15.60
2022-10-02T09:01:05.350Z,15.63
2022-10-02T09:02:05.330Z,15.63
2022-10-02T09:03:05.283Z,15.64
2022-10-02T09:04:05.283Z,15.61
2022-10-02T09:05:05.255Z,15.64
2022-10-02T09:06:05.223Z,15.64
2022-10-02T09:07:05.227Z,15.67
2022-10-02T09:08:05.203Z,15.70
2022-10-02T09:09:05.206Z,15.74
2022-10-02T09:10:05.330Z,15.74
2022-10-02T09:11:05.166Z,15.76
2022-10-02T09:12:05.163Z,15.78
2022-10-02T09:13:05.136Z,15.81
2022-10-02T09:14:05.149Z,15.84
2022-10-02T09:15:05.193Z,15.88
2022-10-02T09:16:05.477Z,15.89
2022-10-02T09:17:05.096Z,15.92
2022-10-02T09:18:05.087Z,15.94
2022-10-02T09:19:05.376Z,15.96
2022-10-02T09:20:05.083Z,16.00
2022-10-02T09:21:09.323Z,16.03
2022-10-02T09:22:06.043Z,16.04
2022-10-02T09:23:05.029Z,16.03
2022-10-02T09:24:05.031Z,16.06
2022-10-02T09:25:05.012Z,16.04
2022-10-02T09:26:05.011Z,16.06
2022-10-02T09:27:05.290Z,16.06
2022-10-02T09:28:05.019Z,16.09
2022-10-02T09:29:04.974Z,16.11
2022-10-02T09:30:04.950Z,16.12
2022-10-02T09:31:04.946Z,16.15
2022-10-02T09:32:04.934Z,16.16
2022-10-02T09:33:04.921Z,16.18
2022-10-02T09:34:04.904Z,16.20
2022-10-02T09:35:04.904Z,16.22
2022-10-02T09:36:04.895Z,16.18
2022-10-02T09:37:04.868Z,16.22
2022-10-02T09:38:04.873Z,16.23
2022-10-02T09:39:05.035Z,16.25
2022-10-02T09:40:04.839Z,16.26
2022-10-02T09:41:04.813Z,16.23
2022-10-02T09:42:04.816Z,16.23
2022-10-02T09:43:04.793Z,16.22
2022-10-02T09:44:04.985Z,16.16
2022-10-02T09:45:04.765Z,16.12
2022-10-02T09:46:04.832Z,16.11
2022-10-02T09:47:04.741Z,16.06
2022-10-02T09:48:04.749Z,16.01
2022-10-02T09:49:04.743Z,15.99
2022-10-02T09:50:04.739Z,16.00
2022-10-02T09:51:04.687Z,16.00
2022-10-02T09:52:04.847Z,15.96
2022-10-02T09:53:04.671Z,15.99
2022-10-02T09:54:04.673Z,16.00
2022-10-02T09:55:04.648Z,15.96
2022-10-02T09:56:04.899Z,15.93
2022-10-02T09:57:04.621Z,15.92
2022-10-02T09:58:04.609Z,15.85
2022-10-02T09:59:04.611Z,15.84
2022-10-02T10:00:04.602Z,15.84
2022-10-02T10:01:04.931Z,15.84
2022-10-02T10:02:04.642Z,15.84
2022-10-02T10:03:04.550Z,15.85
2022-10-02T10:04:04.652Z,15.86
2022-10-02T10:05:06.339Z,15.84
2022-10-02T10:06:04.512Z,15.84
2022-10-02T10:07:04.519Z,15.86
2022-10-02T10:08:04.503Z,15.85
2022-10-02T10:09:04.577Z,15.84
2022-10-02T10:10:04.467Z,15.82
2022-10-02T10:11:04.453Z,15.79
2022-10-02T10:12:04.748Z,15.76
2022-10-02T10:13:04.427Z,15.74
2022-10-02T10:14:04.415Z,15.75
2022-10-02T10:15:08.643Z,15.76
2022-10-02T10:16:04.480Z,15.76
2022-10-02T10:17:04.668Z,15.76
2022-10-02T10:18:11.412Z,15.75
2022-10-02T10:19:04.373Z,15.74
2022-10-02T10:20:04.372Z,15.74
2022-10-02T10:21:04.351Z,15.74
2022-10-02T10:22:04.342Z,15.72
2022-10-02T10:23:04.600Z,15.72
2022-10-02T10:24:04.315Z,15.74
2022-10-02T10:25:04.296Z,15.72
2022-10-02T10:26:04.296Z,15.68
2022-10-02T10:27:07.858Z,15.70
2022-10-02T10:28:06.182Z,15.78
2022-10-02T10:29:04.275Z,15.81
2022-10-02T10:30:04.254Z,15.81
2022-10-02T10:31:04.226Z,15.81
2022-10-02T10:32:04.592Z,15.86
2022-10-02T10:33:04.208Z,15.88
2022-10-02T10:34:04.174Z,15.92
2022-10-02T10:35:04.166Z,15.93
2022-10-02T10:36:04.168Z,15.94
2022-10-02T10:37:04.157Z,15.93
2022-10-02T10:38:04.145Z,15.96
2022-10-02T10:39:04.125Z,16.00
2022-10-02T10:40:04.131Z,16.03
2022-10-02T10:41:04.102Z,16.04
2022-10-02T10:42:04.100Z,16.04
2022-10-02T10:43:07.780Z,16.09
2022-10-02T10:44:04.091Z,16.09
2022-10-02T10:45:04.047Z,16.12
2022-10-02T10:46:04.113Z,16.15
2022-10-02T10:47:04.041Z,16.16
2022-10-02T10:48:04.052Z,16.20
2022-10-02T10:49:03.999Z,16.25
2022-10-02T10:50:04.001Z,16.34
2022-10-02T10:51:04.246Z,16.40
2022-10-02T10:52:03.983Z,16.48
2022-10-02T10:53:03.973Z,16.49
2022-10-02T10:54:03.949Z,16.53
2022-10-02T10:55:04.256Z,16.58
2022-10-02T10:56:03.933Z,16.60
2022-10-02T10:57:03.915Z,16.63
2022-10-02T10:58:03.891Z,16.68
2022-10-02T10:59:03.895Z,16.68
2022-10-02T11:00:03.871Z,16.63
2022-10-02T11:01:04.219Z,16.65
2022-10-02T11:02:03.871Z,16.65
2022-10-02T11:03:03.833Z,16.63
2022-10-02T11:04:03.830Z,16.68
2022-10-02T11:05:03.813Z,16.80
2022-10-02T11:06:03.808Z,16.95
2022-10-02T11:07:03.984Z,16.96
2022-10-02T11:08:03.785Z,16.96
2022-10-02T11:09:03.786Z,16.95
2022-10-02T11:10:03.770Z,17.00
2022-10-02T11:11:03.749Z,17.15
2022-10-02T11:12:08.830Z,17.25
2022-10-02T11:13:04.735Z,17.30
2022-10-02T11:14:03.718Z,17.35
2022-10-02T11:15:03.717Z,17.46
2022-10-02T11:16:03.733Z,17.51
2022-10-02T11:17:03.666Z,17.66
2022-10-02T11:18:03.679Z,17.78
2022-10-02T11:19:03.659Z,17.84
2022-10-02T11:20:03.637Z,17.79
2022-10-02T11:21:03.912Z,17.67
2022-10-02T11:22:03.609Z,17.57
2022-10-02T11:23:03.612Z,17.47
2022-10-02T11:24:03.603Z,17.40
2022-10-02T11:25:03.591Z,17.33
2022-10-02T11:26:03.570Z,17.28
2022-10-02T11:27:03.586Z,17.22
2022-10-02T11:28:03.583Z,17.13
2022-10-02T11:29:03.543Z,17.06
2022-10-02T11:30:03.534Z,17.04
2022-10-02T11:31:03.501Z,17.04
2022-10-02T11:32:03.566Z,17.03
2022-10-02T11:33:03.495Z,16.99
2022-10-02T11:34:03.472Z,17.00
2022-10-02T11:35:03.468Z,17.00
2022-10-02T11:36:03.452Z,17.04
2022-10-02T11:37:03.447Z,17.06
2022-10-02T11:38:04.234Z,17.07
2022-10-02T11:39:03.414Z,17.06
2022-10-02T11:40:03.403Z,17.08
2022-10-02T11:41:03.405Z,17.07
2022-10-02T11:42:03.392Z,17.04
2022-10-02T11:43:03.378Z,17.06
2022-10-02T11:44:03.370Z,17.04
2022-10-02T11:45:03.580Z,16.99
2022-10-02T11:46:03.397Z,16.96
2022-10-02T11:47:03.341Z,16.96
2022-10-02T11:48:03.306Z,16.95
2022-10-02T11:49:03.311Z,16.96
2022-10-02T11:50:03.289Z,17.03
2022-10-02T11:51:03.491Z,17.06
2022-10-02T11:52:03.577Z,17.08
2022-10-02T11:53:03.248Z,17.13
2022-10-02T11:54:03.238Z,17.15
2022-10-02T11:55:03.237Z,17.20
2022-10-02T11:56:03.231Z,17.22
2022-10-02T11:57:03.214Z,17.25
2022-10-02T11:58:03.223Z,17.29
2022-10-02T11:59:03.172Z,17.30
2022-10-02T12:00:03.174Z,17.32
2022-10-02T12:01:03.164Z,17.30
2022-10-02T12:02:03.197Z,17.33
2022-10-02T12:03:03.241Z,17.36
2022-10-02T12:04:03.133Z,17.43
2022-10-02T12:05:03.103Z,17.53
2022-10-02T12:06:03.274Z,17.59
2022-10-02T12:07:03.083Z,17.70
2022-10-02T12:08:03.080Z,17.76
2022-10-02T12:09:03.064Z,17.85
2022-10-02T12:10:03.054Z,17.87
2022-10-02T12:11:03.031Z,17.94
2022-10-02T12:12:03.089Z,17.97
2022-10-02T12:13:03.026Z,18.02
2022-10-02T12:14:03.026Z,18.02
2022-10-02T12:15:03.194Z,17.99
2022-10-02T12:16:02.989Z,17.99
2022-10-02T12:17:03.004Z,17.97
2022-10-02T12:18:02.971Z,17.99
2022-10-02T12:19:02.955Z,18.00
2022-10-02T12:20:02.926Z,17.99
2022-10-02T12:21:03.118Z,18.00
2022-10-02T12:22:02.922Z,18.00
2022-10-02T12:23:02.902Z,17.95
2022-10-02T12:24:02.909Z,17.95
2022-10-02T12:25:02.871Z,17.89
2022-10-02T12:26:02.872Z,17.85
2022-10-02T12:27:02.863Z,17.85
2022-10-02T12:28:03.222Z,17.82
2022-10-02T12:29:02.846Z,17.79
2022-10-02T12:30:02.832Z,17.76
2022-10-02T12:31:02.811Z,17.74
2022-10-02T12:32:02.828Z,17.73
2022-10-02T12:33:03.033Z,17.71
2022-10-02T12:34:02.763Z,17.73
2022-10-02T12:35:02.775Z,17.76
2022-10-02T12:36:02.766Z,17.76
2022-10-02T12:37:02.733Z,17.74
2022-10-02T12:38:03.056Z,17.71
2022-10-02T12:39:02.714Z,17.66
2022-10-02T12:40:02.698Z,17.64
2022-10-02T12:41:02.704Z,17.63
2022-10-02T12:42:02.697Z,17.55
2022-10-02T12:43:02.679Z,17.54
2022-10-02T12:44:02.784Z,17.51
2022-10-02T12:45:02.659Z,17.54
2022-10-02T12:46:02.673Z,17.47
2022-10-02T12:47:02.629Z,17.43
2022-10-02T12:48:02.606Z,17.36
2022-10-02T12:49:02.610Z,17.41
2022-10-02T12:50:02.806Z,17.40
2022-10-02T12:51:05.548Z,17.40
2022-10-02T12:52:02.570Z,17.40